sensor_id;sensor_type;location;lat;lon;timestamp;P1;durP1;ratioP1;P2;durP2;ratioP2
23747;SDS011;12054;53.662;10.126;2022-09-24T00:01:58;8.98;;;7.88;;
23747;SDS011;12054;53.662;10.126;2022-09-24T00:04:24;10.88;;;8.45;;
23747;SDS011;12054;53.662;10.126;2022-09-24T00:06:55;11.68;;;8.18;;
23747;SDS011;12054;53.662;10.126;2022-09-24T00:09:21;10.27;;;8.25;;
23747;SDS011;12054;53.662;10.126;2022-09-24T00:11:47;10.48;;;8.48;;
23747;SDS011;12054;53.662;10.126;2022-09-24T00:14:14;10.38;;;8.30;;
23747;SDS011;12054;53.662;10.126;2022-09-24T00:16:41;10.95;;;7.90;;
23747;SDS011;12054;53.662;10.126;2022-09-24T00:19:08;9.15;;;7.82;;
23747;SDS011;12054;53.662;10.126;2022-09-24T00:21:35;10.40;;;8.20;;
23747;SDS011;12054;53.662;10.126;2022-09-24T00:24:34;10.82;;;8.50;;
23747;SDS011;12054;53.662;10.126;2022-09-24T00:27:12;10.23;;;8.25;;
23747;SDS011;12054;53.662;10.126;2022-09-24T00:29:37;12.30;;;8.20;;
23747;SDS011;12054;53.662;10.126;2022-09-24T00:32:03;9.75;;;8.75;;
23747;SDS011;12054;53.662;10.126;2022-09-24T00:34:30;9.52;;;8.52;;
23747;SDS011;12054;53.662;10.126;2022-09-24T00:36:55;9.70;;;8.50;;
23747;SDS011;12054;53.662;10.126;2022-09-24T00:39:21;9.82;;;8.13;;
23747;SDS011;12054;53.662;10.126;2022-09-24T00:41:46;9.02;;;7.88;;
23747;SDS011;12054;53.662;10.126;2022-09-24T00:46:57;14.50;;;8.98;;
23747;SDS011;12054;53.662;10.126;2022-09-24T00:49:22;9.43;;;8.15;;
23747;SDS011;12054;53.662;10.126;2022-09-24T00:51:49;9.02;;;8.10;;
23747;SDS011;12054;53.662;10.126;2022-09-24T00:54:18;10.65;;;8.70;;
23747;SDS011;12054;53.662;10.126;2022-09-24T00:56:48;9.40;;;7.70;;
23747;SDS011;12054;53.662;10.126;2022-09-24T00:59:16;8.70;;;7.80;;
23747;SDS011;12054;53.662;10.126;2022-09-24T01:01:44;10.15;;;7.35;;
23747;SDS011;12054;53.662;10.126;2022-09-24T01:04:10;9.00;;;8.02;;
23747;SDS011;12054;53.662;10.126;2022-09-24T01:06:37;10.68;;;8.30;;
23747;SDS011;12054;53.662;10.126;2022-09-24T01:09:03;10.30;;;8.63;;
23747;SDS011;12054;53.662;10.126;2022-09-24T01:14:29;10.18;;;8.35;;
23747;SDS011;12054;53.662;10.126;2022-09-24T01:19:48;11.00;;;8.35;;
23747;SDS011;12054;53.662;10.126;2022-09-24T01:25:30;10.30;;;8.10;;
23747;SDS011;12054;53.662;10.126;2022-09-24T01:31:39;9.35;;;7.88;;
23747;SDS011;12054;53.662;10.126;2022-09-24T01:34:10;9.05;;;7.80;;
23747;SDS011;12054;53.662;10.126;2022-09-24T01:36:39;10.38;;;8.27;;
23747;SDS011;12054;53.662;10.126;2022-09-24T01:39:06;9.57;;;8.05;;
23747;SDS011;12054;53.662;10.126;2022-09-24T01:41:33;9.13;;;8.10;;
23747;SDS011;12054;53.662;10.126;2022-09-24T01:44:01;7.93;;;7.13;;
23747;SDS011;12054;53.662;10.126;2022-09-24T01:46:29;8.95;;;7.95;;
23747;SDS011;12054;53.662;10.126;2022-09-24T01:48:55;9.10;;;7.60;;
23747;SDS011;12054;53.662;10.126;2022-09-24T01:51:24;10.00;;;7.63;;
23747;SDS011;12054;53.662;10.126;2022-09-24T01:54:04;9.20;;;8.18;;
23747;SDS011;12054;53.662;10.126;2022-09-24T01:56:37;10.10;;;8.38;;
23747;SDS011;12054;53.662;10.126;2022-09-24T01:59:10;9.18;;;8.23;;
23747;SDS011;12054;53.662;10.126;2022-09-24T02:04:37;10.02;;;9.02;;
23747;SDS011;12054;53.662;10.126;2022-09-24T02:07:25;10.43;;;8.82;;
23747;SDS011;12054;53.662;10.126;2022-09-24T02:09:57;10.00;;;9.00;;
23747;SDS011;12054;53.662;10.126;2022-09-24T02:12:27;9.63;;;8.52;;
23747;SDS011;12054;53.662;10.126;2022-09-24T02:15:00;8.93;;;8.02;;
23747;SDS011;12054;53.662;10.126;2022-09-24T02:17:31;9.50;;;8.50;;
23747;SDS011;12054;53.662;10.126;2022-09-24T02:20:01;8.48;;;7.63;;
23747;SDS011;12054;53.662;10.126;2022-09-24T02:22:29;7.82;;;6.97;;
23747;SDS011;12054;53.662;10.126;2022-09-24T02:24:57;8.35;;;7.45;;
23747;SDS011;12054;53.662;10.126;2022-09-24T02:27:25;9.25;;;7.38;;
23747;SDS011;12054;53.662;10.126;2022-09-24T02:29:53;8.95;;;7.93;;
23747;SDS011;12054;53.662;10.126;2022-09-24T02:32:24;9.88;;;8.20;;
23747;SDS011;12054;53.662;10.126;2022-09-24T02:34:54;9.50;;;7.88;;
23747;SDS011;12054;53.662;10.126;2022-09-24T02:37:26;8.80;;;7.47;;
23747;SDS011;12054;53.662;10.126;2022-09-24T02:39:53;9.13;;;8.18;;
23747;SDS011;12054;53.662;10.126;2022-09-24T02:42:18;8.57;;;7.57;;
23747;SDS011;12054;53.662;10.126;2022-09-24T02:44:45;10.25;;;8.18;;
23747;SDS011;12054;53.662;10.126;2022-09-24T02:47:11;8.35;;;7.50;;
23747;SDS011;12054;53.662;10.126;2022-09-24T02:49:37;8.13;;;7.13;;
23747;SDS011;12054;53.662;10.126;2022-09-24T02:52:03;8.93;;;7.97;;
23747;SDS011;12054;53.662;10.126;2022-09-24T02:54:28;7.82;;;6.90;;
23747;SDS011;12054;53.662;10.126;2022-09-24T02:56:55;8.98;;;7.90;;
23747;SDS011;12054;53.662;10.126;2022-09-24T02:59:20;8.90;;;7.82;;
23747;SDS011;12054;53.662;10.126;2022-09-24T03:01:46;10.05;;;7.20;;
23747;SDS011;12054;53.662;10.126;2022-09-24T03:04:12;8.57;;;7.20;;
23747;SDS011;12054;53.662;10.126;2022-09-24T03:06:38;8.70;;;7.80;;
23747;SDS011;12054;53.662;10.126;2022-09-24T03:09:04;8.80;;;7.75;;
23747;SDS011;12054;53.662;10.126;2022-09-24T03:11:30;10.25;;;8.00;;
23747;SDS011;12054;53.662;10.126;2022-09-24T03:13:57;11.02;;;8.13;;
23747;SDS011;12054;53.662;10.126;2022-09-24T03:16:23;8.57;;;7.68;;
23747;SDS011;12054;53.662;10.126;2022-09-24T03:18:49;10.95;;;8.30;;
23747;SDS011;12054;53.662;10.126;2022-09-24T03:21:16;10.60;;;8.13;;
23747;SDS011;12054;53.662;10.126;2022-09-24T03:23:43;9.30;;;7.90;;
23747;SDS011;12054;53.662;10.126;2022-09-24T03:26:08;9.38;;;8.38;;
23747;SDS011;12054;53.662;10.126;2022-09-24T03:28:34;9.80;;;7.85;;
23747;SDS011;12054;53.662;10.126;2022-09-24T03:31:00;8.40;;;7.43;;
23747;SDS011;12054;53.662;10.126;2022-09-24T03:36:09;9.75;;;7.85;;
23747;SDS011;12054;53.662;10.126;2022-09-24T03:38:40;8.15;;;7.32;;
23747;SDS011;12054;53.662;10.126;2022-09-24T03:41:07;8.05;;;7.25;;
23747;SDS011;12054;53.662;10.126;2022-09-24T03:43:34;8.63;;;7.68;;
23747;SDS011;12054;53.662;10.126;2022-09-24T03:46:00;8.63;;;7.35;;
23747;SDS011;12054;53.662;10.126;2022-09-24T03:48:27;8.38;;;7.55;;
23747;SDS011;12054;53.662;10.126;2022-09-24T03:50:54;8.98;;;8.00;;
23747;SDS011;12054;53.662;10.126;2022-09-24T03:53:20;9.18;;;8.13;;
23747;SDS011;12054;53.662;10.126;2022-09-24T03:55:53;8.82;;;7.55;;
23747;SDS011;12054;53.662;10.126;2022-09-24T03:58:20;10.02;;;7.68;;
23747;SDS011;12054;53.662;10.126;2022-09-24T04:00:45;9.57;;;8.10;;
23747;SDS011;12054;53.662;10.126;2022-09-24T04:03:11;10.50;;;8.02;;
23747;SDS011;12054;53.662;10.126;2022-09-24T04:05:37;12.00;;;8.43;;
23747;SDS011;12054;53.662;10.126;2022-09-24T04:08:03;9.43;;;8.50;;
23747;SDS011;12054;53.662;10.126;2022-09-24T04:10:31;9.88;;;8.88;;
23747;SDS011;12054;53.662;10.126;2022-09-24T04:12:57;9.95;;;8.70;;
23747;SDS011;12054;53.662;10.126;2022-09-24T04:15:23;9.90;;;8.35;;
23747;SDS011;12054;53.662;10.126;2022-09-24T04:17:55;10.00;;;8.98;;
23747;SDS011;12054;53.662;10.126;2022-09-24T04:20:23;8.98;;;7.85;;
23747;SDS011;12054;53.662;10.126;2022-09-24T04:22:53;9.52;;;8.35;;
23747;SDS011;12054;53.662;10.126;2022-09-24T04:25:20;9.65;;;8.23;;
23747;SDS011;12054;53.662;10.126;2022-09-24T04:27:54;10.10;;;8.60;;
23747;SDS011;12054;53.662;10.126;2022-09-24T04:30:22;10.15;;;8.95;;
23747;SDS011;12054;53.662;10.126;2022-09-24T04:32:48;10.98;;;8.85;;
23747;SDS011;12054;53.662;10.126;2022-09-24T04:35:18;10.52;;;9.48;;
23747;SDS011;12054;53.662;10.126;2022-09-24T04:37:45;9.48;;;8.10;;
23747;SDS011;12054;53.662;10.126;2022-09-24T04:40:10;12.00;;;8.60;;
23747;SDS011;12054;53.662;10.126;2022-09-24T04:42:40;9.60;;;8.48;;
23747;SDS011;12054;53.662;10.126;2022-09-24T04:45:06;9.85;;;8.85;;
23747;SDS011;12054;53.662;10.126;2022-09-24T04:47:34;11.18;;;9.00;;
23747;SDS011;12054;53.662;10.126;2022-09-24T04:50:00;10.05;;;8.48;;
23747;SDS011;12054;53.662;10.126;2022-09-24T04:52:26;11.43;;;8.77;;
23747;SDS011;12054;53.662;10.126;2022-09-24T04:54:55;9.13;;;8.18;;
23747;SDS011;12054;53.662;10.126;2022-09-24T04:57:22;11.70;;;8.70;;
23747;SDS011;12054;53.662;10.126;2022-09-24T04:59:48;10.35;;;8.60;;
23747;SDS011;12054;53.662;10.126;2022-09-24T05:02:13;9.48;;;8.57;;
23747;SDS011;12054;53.662;10.126;2022-09-24T05:04:39;10.50;;;9.27;;
23747;SDS011;12054;53.662;10.126;2022-09-24T05:07:04;10.43;;;9.30;;
23747;SDS011;12054;53.662;10.126;2022-09-24T05:09:30;11.15;;;9.18;;
23747;SDS011;12054;53.662;10.126;2022-09-24T05:11:56;10.15;;;9.02;;
23747;SDS011;12054;53.662;10.126;2022-09-24T05:14:22;11.23;;;10.05;;
23747;SDS011;12054;53.662;10.126;2022-09-24T05:16:48;11.45;;;9.73;;
23747;SDS011;12054;53.662;10.126;2022-09-24T05:19:13;11.93;;;9.90;;
23747;SDS011;12054;53.662;10.126;2022-09-24T05:21:39;12.90;;;10.55;;
23747;SDS011;12054;53.662;10.126;2022-09-24T05:24:04;12.15;;;10.43;;
23747;SDS011;12054;53.662;10.126;2022-09-24T05:26:30;11.38;;;10.18;;
23747;SDS011;12054;53.662;10.126;2022-09-24T05:29:14;12.80;;;10.73;;
23747;SDS011;12054;53.662;10.126;2022-09-24T05:31:40;12.98;;;11.50;;
23747;SDS011;12054;53.662;10.126;2022-09-24T05:34:05;12.95;;;10.10;;
23747;SDS011;12054;53.662;10.126;2022-09-24T05:36:31;11.95;;;10.15;;
23747;SDS011;12054;53.662;10.126;2022-09-24T05:38:57;11.77;;;10.55;;
23747;SDS011;12054;53.662;10.126;2022-09-24T05:41:25;12.60;;;10.65;;
23747;SDS011;12054;53.662;10.126;2022-09-24T05:43:50;15.60;;;11.38;;
23747;SDS011;12054;53.662;10.126;2022-09-24T05:46:16;14.48;;;11.45;;
23747;SDS011;12054;53.662;10.126;2022-09-24T05:48:42;13.48;;;11.85;;
23747;SDS011;12054;53.662;10.126;2022-09-24T05:51:07;15.00;;;12.63;;
23747;SDS011;12054;53.662;10.126;2022-09-24T05:53:33;15.48;;;12.50;;
23747;SDS011;12054;53.662;10.126;2022-09-24T05:55:59;15.52;;;11.95;;
23747;SDS011;12054;53.662;10.126;2022-09-24T05:58:24;14.13;;;12.35;;
23747;SDS011;12054;53.662;10.126;2022-09-24T06:00:50;13.30;;;11.90;;
23747;SDS011;12054;53.662;10.126;2022-09-24T06:03:16;14.05;;;12.60;;
23747;SDS011;12054;53.662;10.126;2022-09-24T06:05:43;16.90;;;14.10;;
23747;SDS011;12054;53.662;10.126;2022-09-24T06:08:10;17.75;;;13.82;;
23747;SDS011;12054;53.662;10.126;2022-09-24T06:10:38;15.35;;;13.43;;
23747;SDS011;12054;53.662;10.126;2022-09-24T06:13:04;18.00;;;13.55;;
23747;SDS011;12054;53.662;10.126;2022-09-24T06:15:30;19.00;;;14.48;;
23747;SDS011;12054;53.662;10.126;2022-09-24T06:17:56;16.75;;;14.02;;
23747;SDS011;12054;53.662;10.126;2022-09-24T06:20:21;17.67;;;14.48;;
23747;SDS011;12054;53.662;10.126;2022-09-24T06:22:47;16.92;;;14.20;;
23747;SDS011;12054;53.662;10.126;2022-09-24T06:25:14;17.20;;;14.27;;
23747;SDS011;12054;53.662;10.126;2022-09-24T06:27:40;19.75;;;14.95;;
23747;SDS011;12054;53.662;10.126;2022-09-24T06:30:05;18.75;;;15.23;;
23747;SDS011;12054;53.662;10.126;2022-09-24T06:32:31;19.13;;;14.57;;
23747;SDS011;12054;53.662;10.126;2022-09-24T06:34:57;16.27;;;13.85;;
23747;SDS011;12054;53.662;10.126;2022-09-24T06:37:23;19.40;;;14.82;;
23747;SDS011;12054;53.662;10.126;2022-09-24T06:39:48;23.08;;;15.57;;
23747;SDS011;12054;53.662;10.126;2022-09-24T06:42:14;20.65;;;16.13;;
23747;SDS011;12054;53.662;10.126;2022-09-24T06:44:39;20.35;;;15.63;;
23747;SDS011;12054;53.662;10.126;2022-09-24T06:47:06;21.10;;;16.73;;
23747;SDS011;12054;53.662;10.126;2022-09-24T06:49:31;23.30;;;16.48;;
23747;SDS011;12054;53.662;10.126;2022-09-24T06:51:58;20.90;;;15.90;;
23747;SDS011;12054;53.662;10.126;2022-09-24T06:54:23;22.38;;;17.42;;
23747;SDS011;12054;53.662;10.126;2022-09-24T06:56:49;22.42;;;18.23;;
23747;SDS011;12054;53.662;10.126;2022-09-24T06:59:33;24.95;;;18.27;;
23747;SDS011;12054;53.662;10.126;2022-09-24T07:02:04;21.58;;;17.45;;
23747;SDS011;12054;53.662;10.126;2022-09-24T07:04:30;26.25;;;18.85;;
23747;SDS011;12054;53.662;10.126;2022-09-24T07:06:55;24.52;;;18.30;;
23747;SDS011;12054;53.662;10.126;2022-09-24T07:09:39;25.60;;;18.48;;
23747;SDS011;12054;53.662;10.126;2022-09-24T07:12:05;26.30;;;19.15;;
23747;SDS011;12054;53.662;10.126;2022-09-24T07:14:34;25.23;;;19.00;;
23747;SDS011;12054;53.662;10.126;2022-09-24T07:17:00;29.67;;;19.75;;
23747;SDS011;12054;53.662;10.126;2022-09-24T07:19:25;29.65;;;20.25;;
23747;SDS011;12054;53.662;10.126;2022-09-24T07:21:51;26.67;;;19.13;;
23747;SDS011;12054;53.662;10.126;2022-09-24T07:24:16;26.42;;;20.38;;
23747;SDS011;12054;53.662;10.126;2022-09-24T07:26:42;26.88;;;20.30;;
23747;SDS011;12054;53.662;10.126;2022-09-24T07:29:07;28.40;;;20.83;;
23747;SDS011;12054;53.662;10.126;2022-09-24T07:31:33;28.08;;;21.13;;
23747;SDS011;12054;53.662;10.126;2022-09-24T07:34:00;29.77;;;20.42;;
23747;SDS011;12054;53.662;10.126;2022-09-24T07:36:25;27.55;;;21.13;;
23747;SDS011;12054;53.662;10.126;2022-09-24T07:38:55;27.38;;;20.30;;
23747;SDS011;12054;53.662;10.126;2022-09-24T07:41:22;27.83;;;20.65;;
23747;SDS011;12054;53.662;10.126;2022-09-24T07:43:47;31.13;;;20.63;;
23747;SDS011;12054;53.662;10.126;2022-09-24T07:46:13;28.60;;;21.23;;
23747;SDS011;12054;53.662;10.126;2022-09-24T07:48:38;26.15;;;19.80;;
23747;SDS011;12054;53.662;10.126;2022-09-24T07:51:04;27.88;;;19.33;;
23747;SDS011;12054;53.662;10.126;2022-09-24T07:53:33;27.98;;;19.95;;
23747;SDS011;12054;53.662;10.126;2022-09-24T07:55:59;27.20;;;19.13;;
23747;SDS011;12054;53.662;10.126;2022-09-24T07:58:25;26.00;;;19.33;;
23747;SDS011;12054;53.662;10.126;2022-09-24T08:00:50;24.80;;;18.40;;
23747;SDS011;12054;53.662;10.126;2022-09-24T08:03:16;25.42;;;18.92;;
23747;SDS011;12054;53.662;10.126;2022-09-24T08:05:44;23.08;;;16.95;;
23747;SDS011;12054;53.662;10.126;2022-09-24T08:08:10;24.52;;;16.77;;
23747;SDS011;12054;53.662;10.126;2022-09-24T08:10:36;23.52;;;17.27;;
23747;SDS011;12054;53.662;10.126;2022-09-24T08:13:02;21.70;;;16.35;;
23747;SDS011;12054;53.662;10.126;2022-09-24T08:15:28;26.58;;;18.80;;
23747;SDS011;12054;53.662;10.126;2022-09-24T08:17:53;23.17;;;16.70;;
23747;SDS011;12054;53.662;10.126;2022-09-24T08:20:25;26.25;;;17.42;;
23747;SDS011;12054;53.662;10.126;2022-09-24T08:22:50;28.40;;;17.17;;
23747;SDS011;12054;53.662;10.126;2022-09-24T08:25:16;28.80;;;17.30;;
23747;SDS011;12054;53.662;10.126;2022-09-24T08:27:42;22.30;;;15.48;;
23747;SDS011;12054;53.662;10.126;2022-09-24T08:30:07;28.15;;;17.25;;
23747;SDS011;12054;53.662;10.126;2022-09-24T08:32:33;23.33;;;16.30;;
23747;SDS011;12054;53.662;10.126;2022-09-24T08:34:59;24.58;;;16.60;;
23747;SDS011;12054;53.662;10.126;2022-09-24T08:37:25;22.75;;;16.38;;
23747;SDS011;12054;53.662;10.126;2022-09-24T08:39:52;25.23;;;17.45;;
23747;SDS011;12054;53.662;10.126;2022-09-24T08:42:24;22.02;;;15.98;;
23747;SDS011;12054;53.662;10.126;2022-09-24T08:45:04;24.80;;;16.58;;
23747;SDS011;12054;53.662;10.126;2022-09-24T08:47:53;22.98;;;16.92;;
23747;SDS011;12054;53.662;10.126;2022-09-24T08:50:28;22.40;;;15.30;;
23747;SDS011;12054;53.662;10.126;2022-09-24T08:53:00;23.73;;;16.60;;
23747;SDS011;12054;53.662;10.126;2022-09-24T08:55:40;24.77;;;16.35;;
23747;SDS011;12054;53.662;10.126;2022-09-24T09:01:04;24.25;;;16.13;;
23747;SDS011;12054;53.662;10.126;2022-09-24T09:03:49;22.42;;;16.27;;
23747;SDS011;12054;53.662;10.126;2022-09-24T09:09:37;25.17;;;16.35;;
23747;SDS011;12054;53.662;10.126;2022-09-24T09:12:12;26.42;;;17.17;;
23747;SDS011;12054;53.662;10.126;2022-09-24T09:15:00;22.95;;;15.88;;
23747;SDS011;12054;53.662;10.126;2022-09-24T09:20:45;27.00;;;17.23;;
23747;SDS011;12054;53.662;10.126;2022-09-24T09:23:14;25.98;;;18.38;;
23747;SDS011;12054;53.662;10.126;2022-09-24T09:25:47;24.63;;;17.38;;
23747;SDS011;12054;53.662;10.126;2022-09-24T09:28:17;24.65;;;16.60;;
23747;SDS011;12054;53.662;10.126;2022-09-24T09:30:54;25.70;;;17.15;;
23747;SDS011;12054;53.662;10.126;2022-09-24T09:33:44;25.95;;;17.13;;
23747;SDS011;12054;53.662;10.126;2022-09-24T09:36:35;25.08;;;16.65;;
23747;SDS011;12054;53.662;10.126;2022-09-24T09:41:45;26.38;;;18.00;;
23747;SDS011;12054;53.662;10.126;2022-09-24T09:44:29;26.65;;;18.58;;
23747;SDS011;12054;53.662;10.126;2022-09-24T09:47:04;24.10;;;16.90;;
23747;SDS011;12054;53.662;10.126;2022-09-24T09:49:43;26.08;;;17.92;;
23747;SDS011;12054;53.662;10.126;2022-09-24T09:52:15;24.92;;;16.67;;
23747;SDS011;12054;53.662;10.126;2022-09-24T09:54:44;24.17;;;17.95;;
23747;SDS011;12054;53.662;10.126;2022-09-24T09:57:11;26.10;;;17.67;;
23747;SDS011;12054;53.662;10.126;2022-09-24T09:59:47;25.75;;;17.52;;
23747;SDS011;12054;53.662;10.126;2022-09-24T10:02:18;26.00;;;17.88;;
23747;SDS011;12054;53.662;10.126;2022-09-24T10:04:47;25.48;;;17.05;;
23747;SDS011;12054;53.662;10.126;2022-09-24T10:07:18;26.17;;;18.02;;
23747;SDS011;12054;53.662;10.126;2022-09-24T10:09:44;26.63;;;18.70;;
23747;SDS011;12054;53.662;10.126;2022-09-24T10:14:56;23.08;;;17.02;;
23747;SDS011;12054;53.662;10.126;2022-09-24T10:17:47;26.27;;;17.52;;
23747;SDS011;12054;53.662;10.126;2022-09-24T10:20:27;27.83;;;18.55;;
23747;SDS011;12054;53.662;10.126;2022-09-24T10:25:28;28.83;;;19.73;;
23747;SDS011;12054;53.662;10.126;2022-09-24T10:27:57;28.48;;;19.75;;
23747;SDS011;12054;53.662;10.126;2022-09-24T10:30:48;26.98;;;19.05;;
23747;SDS011;12054;53.662;10.126;2022-09-24T10:33:20;29.23;;;20.83;;
23747;SDS011;12054;53.662;10.126;2022-09-24T10:35:47;30.05;;;19.35;;
23747;SDS011;12054;53.662;10.126;2022-09-24T10:38:14;28.13;;;18.05;;
23747;SDS011;12054;53.662;10.126;2022-09-24T10:40:42;27.08;;;19.65;;
23747;SDS011;12054;53.662;10.126;2022-09-24T10:43:13;31.23;;;20.65;;
23747;SDS011;12054;53.662;10.126;2022-09-24T10:46:04;31.13;;;20.73;;
23747;SDS011;12054;53.662;10.126;2022-09-24T10:48:49;33.40;;;20.70;;
23747;SDS011;12054;53.662;10.126;2022-09-24T10:54:31;33.95;;;20.80;;
23747;SDS011;12054;53.662;10.126;2022-09-24T10:56:58;32.97;;;21.33;;
23747;SDS011;12054;53.662;10.126;2022-09-24T10:59:36;31.77;;;21.50;;
23747;SDS011;12054;53.662;10.126;2022-09-24T11:04:40;32.00;;;22.65;;
23747;SDS011;12054;53.662;10.126;2022-09-24T11:07:40;34.53;;;22.67;;
23747;SDS011;12054;53.662;10.126;2022-09-24T11:10:20;30.05;;;20.40;;
23747;SDS011;12054;53.662;10.126;2022-09-24T11:12:54;34.95;;;21.83;;
23747;SDS011;12054;53.662;10.126;2022-09-24T11:15:51;35.47;;;22.48;;
23747;SDS011;12054;53.662;10.126;2022-09-24T11:18:29;32.50;;;21.85;;
23747;SDS011;12054;53.662;10.126;2022-09-24T11:24:02;36.95;;;21.98;;
23747;SDS011;12054;53.662;10.126;2022-09-24T11:27:23;33.00;;;22.58;;
23747;SDS011;12054;53.662;10.126;2022-09-24T11:32:57;32.97;;;23.67;;
23747;SDS011;12054;53.662;10.126;2022-09-24T11:38:34;34.90;;;23.10;;
23747;SDS011;12054;53.662;10.126;2022-09-24T11:52:36;34.00;;;23.23;;
23747;SDS011;12054;53.662;10.126;2022-09-24T11:57:56;37.05;;;24.27;;
23747;SDS011;12054;53.662;10.126;2022-09-24T12:00:26;37.85;;;23.60;;
23747;SDS011;12054;53.662;10.126;2022-09-24T12:05:51;35.35;;;23.35;;
23747;SDS011;12054;53.662;10.126;2022-09-24T12:08:26;35.75;;;24.27;;
23747;SDS011;12054;53.662;10.126;2022-09-24T12:16:00;36.80;;;24.05;;
23747;SDS011;12054;53.662;10.126;2022-09-24T12:18:30;38.60;;;24.08;;
23747;SDS011;12054;53.662;10.126;2022-09-24T12:21:03;37.05;;;23.77;;
23747;SDS011;12054;53.662;10.126;2022-09-24T12:23:33;38.97;;;24.58;;
23747;SDS011;12054;53.662;10.126;2022-09-24T12:26:03;36.65;;;24.63;;
23747;SDS011;12054;53.662;10.126;2022-09-24T12:28:34;38.55;;;26.23;;
23747;SDS011;12054;53.662;10.126;2022-09-24T12:31:33;37.63;;;24.50;;
23747;SDS011;12054;53.662;10.126;2022-09-24T12:34:30;35.20;;;24.30;;
23747;SDS011;12054;53.662;10.126;2022-09-24T12:37:10;39.17;;;25.10;;
23747;SDS011;12054;53.662;10.126;2022-09-24T12:39:52;36.75;;;24.40;;
23747;SDS011;12054;53.662;10.126;2022-09-24T12:42:42;36.75;;;23.95;;
23747;SDS011;12054;53.662;10.126;2022-09-24T12:45:20;41.60;;;25.17;;
23747;SDS011;12054;53.662;10.126;2022-09-24T12:47:49;39.15;;;24.88;;
23747;SDS011;12054;53.662;10.126;2022-09-24T12:50:21;39.00;;;25.75;;
23747;SDS011;12054;53.662;10.126;2022-09-24T12:52:51;37.38;;;24.25;;
23747;SDS011;12054;53.662;10.126;2022-09-24T12:55:18;38.38;;;24.70;;
23747;SDS011;12054;53.662;10.126;2022-09-24T12:58:05;33.83;;;23.25;;
23747;SDS011;12054;53.662;10.126;2022-09-24T13:00:46;35.15;;;23.20;;
23747;SDS011;12054;53.662;10.126;2022-09-24T13:03:29;38.40;;;23.88;;
23747;SDS011;12054;53.662;10.126;2022-09-24T13:05:56;34.38;;;23.98;;
23747;SDS011;12054;53.662;10.126;2022-09-24T13:08:24;33.97;;;23.23;;
23747;SDS011;12054;53.662;10.126;2022-09-24T13:11:01;34.35;;;23.15;;
23747;SDS011;12054;53.662;10.126;2022-09-24T13:13:30;31.98;;;22.35;;
23747;SDS011;12054;53.662;10.126;2022-09-24T13:16:02;34.70;;;23.15;;
23747;SDS011;12054;53.662;10.126;2022-09-24T13:18:41;34.38;;;23.00;;
23747;SDS011;12054;53.662;10.126;2022-09-24T13:21:17;33.05;;;22.40;;
23747;SDS011;12054;53.662;10.126;2022-09-24T13:23:47;32.47;;;22.67;;
23747;SDS011;12054;53.662;10.126;2022-09-24T13:34:03;29.50;;;21.48;;
23747;SDS011;12054;53.662;10.126;2022-09-24T13:37:09;31.13;;;21.73;;
23747;SDS011;12054;53.662;10.126;2022-09-24T13:43:01;32.20;;;21.90;;
23747;SDS011;12054;53.662;10.126;2022-09-24T13:45:39;27.13;;;20.42;;
23747;SDS011;12054;53.662;10.126;2022-09-24T13:48:14;29.60;;;20.42;;
23747;SDS011;12054;53.662;10.126;2022-09-24T13:50:54;33.63;;;22.85;;
23747;SDS011;12054;53.662;10.126;2022-09-24T13:56:06;30.33;;;21.83;;
23747;SDS011;12054;53.662;10.126;2022-09-24T13:58:39;31.27;;;21.40;;
23747;SDS011;12054;53.662;10.126;2022-09-24T14:01:20;29.65;;;21.13;;
23747;SDS011;12054;53.662;10.126;2022-09-24T14:03:52;30.80;;;21.13;;
23747;SDS011;12054;53.662;10.126;2022-09-24T14:06:28;29.27;;;21.00;;
23747;SDS011;12054;53.662;10.126;2022-09-24T14:11:55;27.83;;;21.05;;
23747;SDS011;12054;53.662;10.126;2022-09-24T14:14:23;29.33;;;21.30;;
23747;SDS011;12054;53.662;10.126;2022-09-24T14:16:51;29.02;;;20.92;;
23747;SDS011;12054;53.662;10.126;2022-09-24T14:19:18;27.75;;;21.13;;
23747;SDS011;12054;53.662;10.126;2022-09-24T14:21:49;28.08;;;20.88;;
23747;SDS011;12054;53.662;10.126;2022-09-24T14:27:06;29.58;;;20.88;;
23747;SDS011;12054;53.662;10.126;2022-09-24T14:29:41;29.13;;;21.67;;
23747;SDS011;12054;53.662;10.126;2022-09-24T14:32:23;27.38;;;20.40;;
23747;SDS011;12054;53.662;10.126;2022-09-24T14:34:56;27.58;;;19.77;;
23747;SDS011;12054;53.662;10.126;2022-09-24T14:37:30;28.58;;;21.27;;
23747;SDS011;12054;53.662;10.126;2022-09-24T14:39:59;28.58;;;21.27;;
23747;SDS011;12054;53.662;10.126;2022-09-24T14:42:30;28.65;;;21.85;;
23747;SDS011;12054;53.662;10.126;2022-09-24T14:45:00;27.13;;;20.98;;
23747;SDS011;12054;53.662;10.126;2022-09-24T14:47:29;29.83;;;22.58;;
23747;SDS011;12054;53.662;10.126;2022-09-24T14:49:57;27.42;;;19.63;;
23747;SDS011;12054;53.662;10.126;2022-09-24T14:52:30;28.25;;;20.38;;
23747;SDS011;12054;53.662;10.126;2022-09-24T14:55:11;29.08;;;21.20;;
23747;SDS011;12054;53.662;10.126;2022-09-24T14:57:42;25.98;;;19.80;;
23747;SDS011;12054;53.662;10.126;2022-09-24T15:02:47;29.27;;;21.25;;
23747;SDS011;12054;53.662;10.126;2022-09-24T15:05:36;27.75;;;20.88;;
23747;SDS011;12054;53.662;10.126;2022-09-24T15:10:52;28.50;;;21.85;;
23747;SDS011;12054;53.662;10.126;2022-09-24T15:13:23;31.42;;;22.02;;
23747;SDS011;12054;53.662;10.126;2022-09-24T15:16:04;32.10;;;23.88;;
23747;SDS011;12054;53.662;10.126;2022-09-24T15:18:39;32.83;;;23.15;;
23747;SDS011;12054;53.662;10.126;2022-09-24T15:21:04;31.52;;;22.10;;
23747;SDS011;12054;53.662;10.126;2022-09-24T15:23:32;29.45;;;21.15;;
23747;SDS011;12054;53.662;10.126;2022-09-24T15:25:58;30.17;;;21.75;;
23747;SDS011;12054;53.662;10.126;2022-09-24T15:28:24;32.35;;;22.58;;
23747;SDS011;12054;53.662;10.126;2022-09-24T15:30:53;31.25;;;23.15;;
23747;SDS011;12054;53.662;10.126;2022-09-24T15:33:19;31.00;;;22.17;;
23747;SDS011;12054;53.662;10.126;2022-09-24T15:35:44;33.42;;;23.20;;
23747;SDS011;12054;53.662;10.126;2022-09-24T15:38:17;29.48;;;21.73;;
23747;SDS011;12054;53.662;10.126;2022-09-24T15:40:43;28.90;;;22.20;;
23747;SDS011;12054;53.662;10.126;2022-09-24T15:43:19;29.38;;;21.60;;
23747;SDS011;12054;53.662;10.126;2022-09-24T15:45:46;29.00;;;21.00;;
23747;SDS011;12054;53.662;10.126;2022-09-24T15:48:12;29.55;;;21.92;;
23747;SDS011;12054;53.662;10.126;2022-09-24T15:50:38;32.83;;;22.35;;
23747;SDS011;12054;53.662;10.126;2022-09-24T15:53:04;34.45;;;23.52;;
23747;SDS011;12054;53.662;10.126;2022-09-24T15:55:30;32.13;;;23.92;;
23747;SDS011;12054;53.662;10.126;2022-09-24T15:58:00;31.77;;;23.42;;
23747;SDS011;12054;53.662;10.126;2022-09-24T16:00:26;31.27;;;22.45;;
23747;SDS011;12054;53.662;10.126;2022-09-24T16:02:53;30.73;;;22.92;;
23747;SDS011;12054;53.662;10.126;2022-09-24T16:05:20;31.95;;;22.58;;
23747;SDS011;12054;53.662;10.126;2022-09-24T16:07:46;30.92;;;22.92;;
23747;SDS011;12054;53.662;10.126;2022-09-24T16:10:11;34.33;;;23.88;;
23747;SDS011;12054;53.662;10.126;2022-09-24T16:12:38;30.10;;;21.60;;
23747;SDS011;12054;53.662;10.126;2022-09-24T16:15:05;32.65;;;23.48;;